Time,TemperatureF,DewpointF,PressureIn,WindDirection,WindDirectionDegrees,WindSpeedMPH,WindSpeedGustMPH,Humidity,HourlyPrecipIn,Conditions,Clouds,dailyrainin,SoftwareType,DateUTC
2012-11-23 00:00:00,25.4,16.7,30.35,WSW,240,0.0,0.0,69,0.00,,---,0.00,VWS V14.01,2012-11-23 07:00:00,
2012-11-23 00:05:00,25.3,17.2,30.34,WSW,240,0.0,0.0,71,0.00,,---,0.00,VWS V14.01,2012-11-23 07:05:00,
2012-11-23 00:10:00,25.8,18.4,30.34,WSW,240,0.0,0.0,73,0.00,,---,0.00,VWS V14.01,2012-11-23 07:10:00,
2012-11-23 00:15:00,26.0,18.5,30.34,WSW,240,0.0,0.0,73,0.00,,---,0.00,VWS V14.01,2012-11-23 07:15:00,
2012-11-23 00:20:00,26.1,18.3,30.33,WSW,240,0.0,0.0,72,0.00,,---,0.00,VWS V14.01,2012-11-23 07:20:00,
2012-11-23 00:25:00,25.8,17.4,30.33,WSW,240,0.0,0.0,70,0.00,,---,0.00,VWS V14.01,2012-11-23 07:25:00,
2012-11-23 00:30:00,25.2,16.8,30.33,WSW,240,0.0,1.0,70,0.00,,---,0.00,VWS V14.01,2012-11-23 07:30:00,
2012-11-23 00:35:00,24.9,16.8,30.33,WSW,240,0.0,0.0,71,0.00,,---,0.00,VWS V14.01,2012-11-23 07:35:00,
2012-11-23 00:40:00,24.6,16.9,30.34,WSW,240,0.0,0.0,72,0.00,,---,0.00,VWS V14.01,2012-11-23 07:40:00,
2012-11-23 00:45:00,24.4,16.7,30.35,WSW,240,0.0,0.0,72,0.00,,---,0.00,VWS V14.01,2012-11-23 07:45:00,
2012-11-23 00:50:00,24.5,16.8,30.34,WSW,240,0.0,0.0,72,0.00,,---,0.00,VWS V14.01,2012-11-23 07:50:00,
2012-11-23 00:55:00,24.6,17.2,30.34,WSW,240,1.0,3.0,73,0.00,,---,0.00,VWS V14.01,2012-11-23 07:55:00,
2012-11-23 01:00:00,24.8,17.1,30.33,WSW,240,0.0,0.0,72,0.00,,---,0.00,VWS V14.01,2012-11-23 08:00:00,
2012-11-23 01:05:00,24.8,17.1,30.33,WSW,240,0.0,1.0,72,0.00,,---,0.00,VWS V14.01,2012-11-23 08:05:00,
2012-11-23 01:10:00,24.7,17.0,30.33,WSW,240,0.0,0.0,72,0.00,,---,0.00,VWS V14.01,2012-11-23 08:10:00,
2012-11-23 01:15:00,24.5,16.8,30.33,WSW,240,0.0,0.0,72,0.00,,---,0.00,VWS V14.01,2012-11-23 08:15:00,
2012-11-23 01:20:00,24.3,16.6,30.34,WSW,240,0.0,0.0,72,0.00,,---,0.00,VWS V14.01,2012-11-23 08:20:00,
2012-11-23 01:25:00,24.5,17.4,30.33,WSW,240,0.0,0.0,74,0.00,,---,0.00,VWS V14.01,2012-11-23 08:25:00,
2012-11-23 01:30:00,24.8,17.7,30.33,WSW,240,0.0,0.0,74,0.00,,---,0.00,VWS V14.01,2012-11-23 08:30:00,
2012-11-23 01:36:00,25.0,17.3,30.32,WSW,240,0.0,0.0,72,0.00,,---,0.00,VWS V14.01,2012-11-23 08:36:00,
2012-11-23 01:41:00,25.1,17.0,30.33,WSW,240,0.0,0.0,71,0.00,,---,0.00,VWS V14.01,2012-11-23 08:41:00,
2012-11-23 01:46:00,24.7,16.3,30.33,WSW,240,0.0,0.0,70,0.00,,---,0.00,VWS V14.01,2012-11-23 08:46:00,
2012-11-23 01:51:00,24.2,15.8,30.35,WSW,240,1.0,2.0,70,0.00,,---,0.00,VWS V14.01,2012-11-23 08:51:00,
2012-11-23 01:56:00,23.1,14.8,30.35,WSW,240,0.0,0.0,70,0.00,,---,0.00,VWS V14.01,2012-11-23 08:56:00,
2012-11-23 02:01:00,22.2,13.9,30.37,WSW,240,0.0,0.0,70,0.00,,---,0.00,VWS V14.01,2012-11-23 09:01:00,
2012-11-23 02:06:00,21.5,13.6,30.37,WSW,240,0.0,0.0,71,0.00,,---,0.00,VWS V14.01,2012-11-23 09:06:00,
2012-11-23 02:11:00,20.7,13.1,30.38,WSW,240,0.0,0.0,72,0.00,,---,0.00,VWS V14.01,2012-11-23 09:11:00,
2012-11-23 02:16:00,19.9,12.7,30.39,WSW,240,0.0,0.0,73,0.00,,---,0.00,VWS V14.01,2012-11-23 09:16:00,
2012-11-23 02:21:00,19.7,12.8,30.39,WSW,240,0.0,0.0,74,0.00,,---,0.00,VWS V14.01,2012-11-23 09:21:00,
2012-11-23 02:26:00,19.4,12.8,30.39,WSW,240,0.0,0.0,75,0.00,,---,0.00,VWS V14.01,2012-11-23 09:26:00,
2012-11-23 02:31:00,19.2,12.6,30.39,WSW,240,1.0,2.0,75,0.00,,---,0.00,VWS V14.01,2012-11-23 09:31:00,
2012-11-23 02:36:00,19.0,12.7,30.39,WSW,240,0.0,2.0,76,0.00,,---,0.00,VWS V14.01,2012-11-23 09:36:00,
2012-11-23 02:41:00,18.8,12.5,30.40,WSW,240,0.0,1.0,76,0.00,,---,0.00,VWS V14.01,2012-11-23 09:41:00,
2012-11-23 02:46:00,18.5,12.2,30.39,WSW,240,0.0,1.0,76,0.00,,---,0.00,VWS V14.01,2012-11-23 09:46:00,
2012-11-23 02:51:00,18.4,12.1,30.41,WSW,240,0.0,0.0,76,0.00,,---,0.00,VWS V14.01,2012-11-23 09:51:00,
2012-11-23 02:56:00,18.5,12.5,30.39,WSW,240,0.0,0.0,77,0.00,,---,0.00,VWS V14.01,2012-11-23 09:56:00,
2012-11-23 03:01:00,18.5,12.5,30.39,WSW,240,0.0,0.0,77,0.00,,---,0.00,VWS V14.01,2012-11-23 10:01:00,
2012-11-23 03:06:00,18.5,12.5,30.41,WSW,240,0.0,0.0,77,0.00,,---,0.00,VWS V14.01,2012-11-23 10:06:00,
2012-11-23 03:11:00,18.5,12.8,30.40,WSW,240,0.0,0.0,78,0.00,,---,0.00,VWS V14.01,2012-11-23 10:11:00,
2012-11-23 03:16:00,18.5,12.8,30.40,WSW,240,0.0,0.0,78,0.00,,---,0.00,VWS V14.01,2012-11-23 10:16:00,
2012-11-23 03:21:00,18.5,12.8,30.40,WSW,240,0.0,0.0,78,0.00,,---,0.00,VWS V14.01,2012-11-23 10:21:00,
2012-11-23 03:26:00,18.4,12.4,30.42,WSW,240,0.0,0.0,77,0.00,,---,0.00,VWS V14.01,2012-11-23 10:26:00,
2012-11-23 03:31:00,18.4,12.7,30.41,WSW,240,0.0,0.0,78,0.00,,---,0.00,VWS V14.01,2012-11-23 10:31:00,
2012-11-23 03:36:00,18.4,12.7,30.41,WSW,240,0.0,1.0,78,0.00,,---,0.00,VWS V14.01,2012-11-23 10:36:00,
2012-11-23 03:41:00,18.2,12.5,30.42,WSW,240,0.0,1.0,78,0.00,,---,0.00,VWS V14.01,2012-11-23 10:41:00,
2012-11-23 03:46:00,17.9,12.2,30.42,WSW,240,0.0,0.0,78,0.00,,---,0.00,VWS V14.01,2012-11-23 10:46:00,
2012-11-23 03:51:00,17.7,12.0,30.42,WSW,240,0.0,0.0,78,0.00,,---,0.00,VWS V14.01,2012-11-23 10:51:00,
2012-11-23 03:56:00,17.6,11.9,30.43,WSW,240,0.0,0.0,78,0.00,,---,0.00,VWS V14.01,2012-11-23 10:56:00,
2012-11-23 04:01:00,17.5,11.8,30.42,WSW,240,0.0,0.0,78,0.00,,---,0.00,VWS V14.01,2012-11-23 11:01:00,
2012-11-23 04:06:00,17.4,11.7,30.51,WSW,240,0.0,0.0,78,0.00,,---,0.00,VWS V14.01,2012-11-23 11:06:00,
2012-11-23 04:11:00,17.5,11.8,30.50,WSW,240,0.0,0.0,78,0.00,,---,0.00,VWS V14.01,2012-11-23 11:11:00,
2012-11-23 04:16:00,17.5,11.8,30.50,WSW,240,0.0,1.0,78,0.00,,---,0.00,VWS V14.01,2012-11-23 11:16:00,
2012-11-23 04:21:00,17.3,11.6,30.51,WSW,240,0.0,0.0,78,0.00,,---,0.00,VWS V14.01,2012-11-23 11:21:00,
2012-11-23 04:26:00,17.4,12.0,30.52,WSW,240,0.0,0.0,79,0.00,,---,0.00,VWS V14.01,2012-11-23 11:26:00,
2012-11-23 04:31:00,17.8,12.4,30.50,WSW,240,0.0,0.0,79,0.00,,---,0.00,VWS V14.01,2012-11-23 11:31:00,
2012-11-23 04:36:00,18.1,12.7,30.49,WSW,240,0.0,0.0,79,0.00,,---,0.00,VWS V14.01,2012-11-23 11:36:00,
2012-11-23 04:41:00,18.1,12.4,30.49,WSW,240,0.0,0.0,78,0.00,,---,0.00,VWS V14.01,2012-11-23 11:41:00,
2012-11-23 04:46:00,18.0,12.3,30.50,WSW,240,0.0,0.0,78,0.00,,---,0.00,VWS V14.01,2012-11-23 11:46:00,
2012-11-23 04:51:00,18.0,12.3,30.50,WSW,240,0.0,1.0,78,0.00,,---,0.00,VWS V14.01,2012-11-23 11:51:00,
2012-11-23 04:56:00,18.1,12.4,30.49,WSW,240,0.0,0.0,78,0.00,,---,0.00,VWS V14.01,2012-11-23 11:56:00,
2012-11-23 05:01:00,18.2,12.8,30.49,WSW,240,0.0,1.0,79,0.00,,---,0.00,VWS V14.01,2012-11-23 12:01:00,
2012-11-23 05:06:00,18.2,12.5,30.51,WSW,240,0.0,0.0,78,0.00,,---,0.00,VWS V14.01,2012-11-23 12:06:00,
2012-11-23 05:11:00,18.0,12.3,30.51,WSW,240,0.0,0.0,78,0.00,,---,0.00,VWS V14.01,2012-11-23 12:11:00,
2012-11-23 05:16:00,17.9,12.2,30.51,WSW,240,0.0,0.0,78,0.00,,---,0.00,VWS V14.01,2012-11-23 12:16:00,
2012-11-23 05:21:00,17.8,12.1,30.51,WSW,240,0.0,0.0,78,0.00,,---,0.00,VWS V14.01,2012-11-23 12:21:00,
2012-11-23 05:26:00,17.8,12.1,30.51,WSW,240,3.0,5.0,78,0.00,,---,0.00,VWS V14.01,2012-11-23 12:26:00,
2012-11-23 05:31:00,17.1,11.1,30.53,WSW,240,3.0,6.0,77,0.00,,---,0.00,VWS V14.01,2012-11-23 12:31:00,
2012-11-23 05:36:00,15.9,10.0,30.53,WSW,240,0.0,5.0,77,0.00,,---,0.00,VWS V14.01,2012-11-23 12:36:00,
2012-11-23 05:42:00,15.5,9.6,30.53,WSW,240,0.0,0.0,77,0.00,,---,0.00,VWS V14.01,2012-11-23 12:42:00,
2012-11-23 05:47:00,15.6,10.3,30.52,WSW,240,0.0,2.0,79,0.00,,---,0.00,VWS V14.01,2012-11-23 12:47:00,
2012-11-23 05:52:00,16.2,11.1,30.52,WSW,240,0.0,2.0,80,0.00,,---,0.00,VWS V14.01,2012-11-23 12:52:00,
2012-11-23 05:57:00,17.2,12.4,30.52,WSW,240,0.0,2.0,81,0.00,,---,0.00,VWS V14.01,2012-11-23 12:57:00,
2012-11-23 06:02:00,17.6,12.5,30.51,WSW,240,0.0,2.0,80,0.00,,---,0.00,VWS V14.01,2012-11-23 13:02:00,
2012-11-23 06:07:00,17.3,11.9,30.58,WSW,240,0.0,2.0,79,0.00,,---,0.00,VWS V14.01,2012-11-23 13:07:00,
2012-11-23 06:12:00,17.4,12.0,30.58,WSW,240,0.0,0.0,79,0.00,,---,0.00,VWS V14.01,2012-11-23 13:12:00,
2012-11-23 06:17:00,17.6,12.2,30.58,WSW,240,0.0,2.0,79,0.00,,---,0.00,VWS V14.01,2012-11-23 13:17:00,
2012-11-23 06:22:00,17.6,12.2,30.58,WSW,240,0.0,0.0,79,0.00,,---,0.00,VWS V14.01,2012-11-23 13:22:00,
2012-11-23 06:27:00,17.7,12.3,30.58,WSW,240,0.0,0.0,79,0.00,,---,0.00,VWS V14.01,2012-11-23 13:27:00,
2012-11-23 06:32:00,17.6,12.2,30.59,WSW,240,0.0,0.0,79,0.00,,---,0.00,VWS V14.01,2012-11-23 13:32:00,
2012-11-23 06:37:00,17.5,12.1,30.59,WSW,240,0.0,0.0,79,0.00,,---,0.00,VWS V14.01,2012-11-23 13:37:00,
2012-11-23 06:42:00,17.3,11.9,30.59,WSW,240,0.0,0.0,79,0.00,,---,0.00,VWS V14.01,2012-11-23 13:42:00,
2012-11-23 06:47:00,17.0,11.6,30.59,WSW,240,0.0,0.0,79,0.00,,---,0.00,VWS V14.01,2012-11-23 13:47:00,
2012-11-23 06:52:00,16.7,11.3,30.59,WSW,240,0.0,0.0,79,0.00,,---,0.00,VWS V14.01,2012-11-23 13:52:00,
2012-11-23 06:57:00,16.5,11.1,30.59,WSW,240,0.0,1.0,79,0.00,,---,0.00,VWS V14.01,2012-11-23 13:57:00,
2012-11-23 07:02:00,16.4,11.0,30.61,WSW,240,0.0,0.0,79,0.00,,---,0.00,VWS V14.01,2012-11-23 14:02:00,
2012-11-23 07:07:00,16.4,11.0,30.65,WSW,240,0.0,0.0,79,0.00,,---,0.00,VWS V14.01,2012-11-23 14:07:00,
2012-11-23 07:12:00,17.0,11.9,30.64,WSW,240,0.0,0.0,80,0.00,,---,0.00,VWS V14.01,2012-11-23 14:12:00,
2012-11-23 07:17:00,18.0,12.9,30.64,WSW,240,0.0,1.0,80,0.00,,---,0.00,VWS V14.01,2012-11-23 14:17:00,
2012-11-23 07:22:00,18.9,13.8,30.61,WSW,240,0.0,1.0,80,0.00,,---,0.00,VWS V14.01,2012-11-23 14:22:00,
2012-11-23 07:27:00,20.1,14.9,30.62,WSW,240,0.0,0.0,80,0.00,,---,0.00,VWS V14.01,2012-11-23 14:27:00,
2012-11-23 07:32:00,21.5,16.3,30.59,WSW,240,0.0,1.0,80,0.00,,---,0.00,VWS V14.01,2012-11-23 14:32:00,
2012-11-23 07:37:00,22.6,17.1,30.58,WSW,240,0.0,2.0,79,0.00,,---,0.00,VWS V14.01,2012-11-23 14:37:00,
2012-11-23 07:42:00,23.5,17.4,30.58,WSW,240,0.0,0.0,77,0.00,,---,0.00,VWS V14.01,2012-11-23 14:42:00,
2012-11-23 07:47:00,24.0,17.5,30.58,WSW,240,0.0,0.0,76,0.00,,---,0.00,VWS V14.01,2012-11-23 14:47:00,
2012-11-23 07:52:00,24.1,17.3,30.58,WSW,240,0.0,0.0,75,0.00,,---,0.00,VWS V14.01,2012-11-23 14:52:00,
2012-11-23 07:57:00,23.7,16.3,30.58,WSW,240,1.0,4.0,73,0.00,,---,0.00,VWS V14.01,2012-11-23 14:57:00,
2012-11-23 08:02:00,21.9,14.3,30.61,WSW,240,1.0,5.0,72,0.00,,---,0.00,VWS V14.01,2012-11-23 15:02:00,
2012-11-23 08:07:00,21.5,14.8,30.59,WSW,240,2.0,4.0,75,0.00,,---,0.00,VWS V14.01,2012-11-23 15:07:00,
2012-11-23 08:12:00,21.8,15.7,30.59,WSW,240,0.0,0.0,77,0.00,,---,0.00,VWS V14.01,2012-11-23 15:12:00,
2012-11-23 08:17:00,22.4,16.6,30.59,WSW,240,2.0,3.0,78,0.00,,---,0.00,VWS V14.01,2012-11-23 15:17:00,
2012-11-23 08:22:00,23.2,17.4,30.59,WSW,240,0.0,1.0,78,0.00,,---,0.00,VWS V14.01,2012-11-23 15:22:00,
2012-11-23 08:27:00,23.9,18.0,30.58,WSW,240,0.0,2.0,78,0.00,,---,0.00,VWS V14.01,2012-11-23 15:27:00,
2012-11-23 08:32:00,24.8,18.9,30.58,WSW,240,0.0,0.0,78,0.00,,---,0.00,VWS V14.01,2012-11-23 15:32:00,
2012-11-23 08:37:00,25.9,19.7,30.56,WSW,240,0.0,0.0,77,0.00,,---,0.00,VWS V14.01,2012-11-23 15:37:00,
2012-11-23 08:42:00,27.3,20.8,30.55,WSW,240,0.0,0.0,76,0.00,,---,0.00,VWS V14.01,2012-11-23 15:42:00,
2012-11-23 08:47:00,28.8,21.2,30.53,WSW,240,0.0,1.0,73,0.00,,---,0.00,VWS V14.01,2012-11-23 15:47:00,
2012-11-23 08:52:00,29.7,20.8,30.51,WSW,240,0.0,4.0,69,0.00,,---,0.00,VWS V14.01,2012-11-23 15:52:00,
2012-11-23 08:57:00,30.2,20.9,30.52,WSW,240,0.0,2.0,68,0.00,,---,0.00,VWS V14.01,2012-11-23 15:57:00,
2012-11-23 09:02:00,30.7,21.1,30.51,WSW,240,0.0,2.0,67,0.00,,---,0.00,VWS V14.01,2012-11-23 16:02:00,
2012-11-23 09:07:00,31.5,21.8,30.53,WSW,240,4.0,4.0,67,0.00,,---,0.00,VWS V14.01,2012-11-23 16:07:00,
2012-11-23 09:12:00,32.6,22.5,30.53,WSW,240,0.0,2.0,66,0.00,,---,0.00,VWS V14.01,2012-11-23 16:12:00,
2012-11-23 09:17:00,33.7,22.8,30.51,WSW,240,1.0,1.0,64,0.00,,---,0.00,VWS V14.01,2012-11-23 16:17:00,
2012-11-23 09:22:00,34.9,23.2,30.49,WSW,240,0.0,3.0,62,0.00,,---,0.00,VWS V14.01,2012-11-23 16:22:00,
2012-11-23 09:27:00,35.8,23.7,30.49,WSW,240,0.0,0.0,61,0.00,,---,0.00,VWS V14.01,2012-11-23 16:27:00,
2012-11-23 09:32:00,36.7,23.7,30.47,WSW,240,0.0,0.0,59,0.00,,---,0.00,VWS V14.01,2012-11-23 16:32:00,
2012-11-23 09:37:00,37.4,23.6,30.47,WSW,240,0.0,1.0,57,0.00,,---,0.00,VWS V14.01,2012-11-23 16:37:00,
2012-11-23 09:42:00,38.0,23.7,30.48,WSW,240,0.0,2.0,56,0.00,,---,0.00,VWS V14.01,2012-11-23 16:42:00,
2012-11-23 09:47:00,38.6,23.0,30.46,WSW,240,0.0,2.0,53,0.00,,---,0.00,VWS V14.01,2012-11-23 16:47:00,
2012-11-23 09:52:00,39.3,22.7,30.46,WSW,240,3.0,5.0,51,0.00,,---,0.00,VWS V14.01,2012-11-23 16:52:00,
2012-11-23 09:58:00,39.8,23.2,30.46,WSW,240,2.0,6.0,51,0.00,,---,0.00,VWS V14.01,2012-11-23 16:58:00,
2012-11-23 10:03:00,39.7,23.1,30.46,WSW,240,0.0,4.0,51,0.00,,---,0.00,VWS V14.01,2012-11-23 17:03:00,
2012-11-23 10:08:00,39.9,21.8,30.46,WSW,240,0.0,2.0,48,0.00,,---,0.00,VWS V14.01,2012-11-23 17:08:00,
2012-11-23 10:13:00,40.3,22.2,30.46,WSW,240,0.0,4.0,48,0.00,,---,0.00,VWS V14.01,2012-11-23 17:13:00,
2012-11-23 10:18:00,40.9,20.7,30.47,WSW,240,0.0,3.0,44,0.00,,---,0.00,VWS V14.01,2012-11-23 17:18:00,
2012-11-23 10:23:00,41.2,20.4,30.47,WSW,240,0.0,5.0,43,0.00,,---,0.00,VWS V14.01,2012-11-23 17:23:00,
2012-11-23 10:28:00,41.7,19.8,30.44,WSW,240,5.0,7.0,41,0.00,,---,0.00,VWS V14.01,2012-11-23 17:28:00,
2012-11-23 10:33:00,42.1,19.5,30.45,WSW,240,2.0,7.0,40,0.00,,---,0.00,VWS V14.01,2012-11-23 17:33:00,
2012-11-23 10:38:00,42.3,19.1,30.44,WSW,240,1.0,5.0,39,0.00,,---,0.00,VWS V14.01,2012-11-23 17:38:00,
2012-11-23 10:43:00,42.5,18.7,30.44,WSW,240,1.0,5.0,38,0.00,,---,0.00,VWS V14.01,2012-11-23 17:43:00,
2012-11-23 10:48:00,42.8,19.0,30.43,WSW,240,2.0,6.0,38,0.00,,---,0.00,VWS V14.01,2012-11-23 17:48:00,
2012-11-23 10:53:00,42.9,18.4,30.43,WSW,240,3.0,7.0,37,0.00,,---,0.00,VWS V14.01,2012-11-23 17:53:00,
2012-11-23 10:58:00,43.2,18.7,30.43,WSW,240,0.0,5.0,37,0.00,,---,0.00,VWS V14.01,2012-11-23 17:58:00,
2012-11-23 11:03:00,43.7,19.1,30.41,WSW,240,0.0,5.0,37,0.00,,---,0.00,VWS V14.01,2012-11-23 18:03:00,
2012-11-23 11:08:00,43.9,19.3,30.46,WSW,240,2.0,4.0,37,0.00,,---,0.00,VWS V14.01,2012-11-23 18:08:00,
2012-11-23 11:13:00,44.2,19.0,30.46,WSW,240,1.0,6.0,36,0.00,,---,0.00,VWS V14.01,2012-11-23 18:13:00,
2012-11-23 11:18:00,44.5,19.2,30.46,WSW,240,2.0,5.0,36,0.00,,---,0.00,VWS V14.01,2012-11-23 18:18:00,
2012-11-23 11:23:00,44.8,19.5,30.43,WSW,240,2.0,5.0,36,0.00,,---,0.00,VWS V14.01,2012-11-23 18:23:00,
2012-11-23 11:28:00,45.0,19.0,30.43,WSW,240,0.0,6.0,35,0.00,,---,0.00,VWS V14.01,2012-11-23 18:28:00,
2012-11-23 11:33:00,45.5,19.5,30.42,WSW,240,2.0,5.0,35,0.00,,---,0.00,VWS V14.01,2012-11-23 18:33:00,
2012-11-23 11:38:00,46.0,19.9,30.42,WSW,240,3.0,3.0,35,0.00,,---,0.00,VWS V14.01,2012-11-23 18:38:00,
2012-11-23 11:43:00,46.2,19.4,30.43,WSW,240,0.0,5.0,34,0.00,,---,0.00,VWS V14.01,2012-11-23 18:43:00,
2012-11-23 11:48:00,46.3,19.5,30.42,WSW,240,0.0,1.0,34,0.00,,---,0.00,VWS V14.01,2012-11-23 18:48:00,
2012-11-23 11:53:00,47.0,20.1,30.40,WSW,240,1.0,3.0,34,0.00,,---,0.00,VWS V14.01,2012-11-23 18:53:00,
2012-11-23 11:58:00,47.4,19.8,30.40,WSW,240,1.0,6.0,33,0.00,,---,0.00,VWS V14.01,2012-11-23 18:58:00,
2012-11-23 12:03:00,47.8,20.1,30.40,WSW,240,0.0,3.0,33,0.00,,---,0.00,VWS V14.01,2012-11-23 19:03:00,
2012-11-23 12:08:00,48.3,19.8,30.39,WSW,240,1.0,2.0,32,0.00,,---,0.00,VWS V14.01,2012-11-23 19:08:00,
2012-11-23 12:13:00,48.6,20.1,30.37,WSW,240,4.0,6.0,32,0.00,,---,0.00,VWS V14.01,2012-11-23 19:13:00,
2012-11-23 12:18:00,48.7,20.2,30.37,WSW,240,0.0,5.0,32,0.00,,---,0.00,VWS V14.01,2012-11-23 19:18:00,
2012-11-23 12:23:00,48.7,20.2,30.37,WSW,240,0.0,5.0,32,0.00,,---,0.00,VWS V14.01,2012-11-23 19:23:00,
2012-11-23 12:28:00,49.0,18.9,30.36,WSW,240,0.0,5.0,30,0.00,,---,0.00,VWS V14.01,2012-11-23 19:28:00,
2012-11-23 12:33:00,49.2,19.1,30.36,WSW,240,0.0,5.0,30,0.00,,---,0.00,VWS V14.01,2012-11-23 19:33:00,
2012-11-23 12:38:00,49.7,19.5,30.36,WSW,240,0.0,2.0,30,0.00,,---,0.00,VWS V14.01,2012-11-23 19:38:00,
2012-11-23 12:43:00,50.1,19.9,30.36,WSW,240,0.0,1.0,30,0.00,,---,0.00,VWS V14.01,2012-11-23 19:43:00,
2012-11-23 12:48:00,50.5,20.2,30.36,WSW,240,0.0,1.0,30,0.00,,---,0.00,VWS V14.01,2012-11-23 19:48:00,
2012-11-23 12:53:00,51.0,19.9,30.34,WSW,240,0.0,1.0,29,0.00,,---,0.00,VWS V14.01,2012-11-23 19:53:00,
2012-11-23 12:58:00,51.0,19.9,30.34,WSW,240,1.0,3.0,29,0.00,,---,0.00,VWS V14.01,2012-11-23 19:58:00,
2012-11-23 13:03:00,50.4,19.4,30.35,WSW,240,0.0,4.0,29,0.00,,---,0.00,VWS V14.01,2012-11-23 20:03:00,
2012-11-23 13:08:00,50.5,19.5,30.37,WSW,240,0.0,2.0,29,0.00,,---,0.00,VWS V14.01,2012-11-23 20:08:00,
2012-11-23 13:13:00,50.8,19.7,30.37,WSW,240,0.0,1.0,29,0.00,,---,0.00,VWS V14.01,2012-11-23 20:13:00,
2012-11-23 13:18:00,51.0,19.1,30.37,WSW,240,1.0,3.0,28,0.00,,---,0.00,VWS V14.01,2012-11-23 20:18:00,
2012-11-23 13:23:00,51.4,19.4,30.36,WSW,240,0.0,1.0,28,0.00,,---,0.00,VWS V14.01,2012-11-23 20:23:00,
2012-11-23 13:28:00,52.0,19.1,30.35,WSW,240,1.0,2.0,27,0.00,,---,0.00,VWS V14.01,2012-11-23 20:28:00,
2012-11-23 13:33:00,52.3,19.3,30.34,WSW,240,0.0,2.0,27,0.00,,---,0.00,VWS V14.01,2012-11-23 20:33:00,
2012-11-23 13:38:00,52.9,19.9,30.34,WSW,240,1.0,4.0,27,0.00,,---,0.00,VWS V14.01,2012-11-23 20:38:00,
2012-11-23 13:43:00,53.7,20.5,30.32,WSW,240,0.0,2.0,27,0.00,,---,0.00,VWS V14.01,2012-11-23 20:43:00,
2012-11-23 13:48:00,53.5,20.4,30.32,WSW,240,1.0,4.0,27,0.00,,---,0.00,VWS V14.01,2012-11-23 20:48:00,
2012-11-23 13:53:00,53.1,20.0,30.34,WSW,240,0.0,2.0,27,0.00,,---,0.00,VWS V14.01,2012-11-23 20:53:00,
2012-11-23 13:58:00,52.9,19.9,30.34,WSW,240,2.0,5.0,27,0.00,,---,0.00,VWS V14.01,2012-11-23 20:58:00,
2012-11-23 14:03:00,52.5,19.5,30.34,WSW,240,0.0,1.0,27,0.00,,---,0.00,VWS V14.01,2012-11-23 21:03:00,
2012-11-23 14:08:00,52.7,19.7,30.36,WSW,240,5.0,7.0,27,0.00,,---,0.00,VWS V14.01,2012-11-23 21:08:00,
2012-11-23 14:14:00,53.6,19.6,30.36,WSW,240,0.0,4.0,26,0.00,,---,0.00,VWS V14.01,2012-11-23 21:14:00,
2012-11-23 14:19:00,54.0,19.9,30.35,WSW,240,1.0,5.0,26,0.00,,---,0.00,VWS V14.01,2012-11-23 21:19:00,
2012-11-23 14:24:00,53.9,18.9,30.36,WSW,240,1.0,3.0,25,0.00,,---,0.00,VWS V14.01,2012-11-23 21:24:00,
2012-11-23 14:29:00,53.8,19.7,30.35,WSW,240,0.0,3.0,26,0.00,,---,0.00,VWS V14.01,2012-11-23 21:29:00,
2012-11-23 14:34:00,54.2,19.2,30.35,WSW,240,0.0,2.0,25,0.00,,---,0.00,VWS V14.01,2012-11-23 21:34:00,
2012-11-23 14:39:00,54.7,19.6,30.34,WSW,240,0.0,1.0,25,0.00,,---,0.00,VWS V14.01,2012-11-23 21:39:00,
2012-11-23 14:44:00,54.6,19.5,30.33,WSW,240,0.0,1.0,25,0.00,,---,0.00,VWS V14.01,2012-11-23 21:44:00,
2012-11-23 14:49:00,54.6,19.5,30.33,WSW,240,0.0,1.0,25,0.00,,---,0.00,VWS V14.01,2012-11-23 21:49:00,
2012-11-23 14:54:00,55.0,19.8,30.33,WSW,240,1.0,2.0,25,0.00,,---,0.00,VWS V14.01,2012-11-23 21:54:00,
2012-11-23 14:59:00,55.5,20.3,30.33,WSW,240,0.0,4.0,25,0.00,,---,0.00,VWS V14.01,2012-11-23 21:59:00,
2012-11-23 15:04:00,55.6,19.4,30.33,WSW,240,2.0,5.0,24,0.00,,---,0.00,VWS V14.01,2012-11-23 22:04:00,
2012-11-23 15:09:00,55.0,19.8,30.34,WSW,240,1.0,5.0,25,0.00,,---,0.00,VWS V14.01,2012-11-23 22:09:00,
2012-11-23 15:14:00,54.9,19.8,30.34,WSW,240,0.0,5.0,25,0.00,,---,0.00,VWS V14.01,2012-11-23 22:14:00,
2012-11-23 15:19:00,55.0,19.8,30.35,WSW,240,0.0,1.0,25,0.00,,---,0.00,VWS V14.01,2012-11-23 22:19:00,
2012-11-23 15:24:00,55.3,19.1,30.34,WSW,240,1.0,3.0,24,0.00,,---,0.00,VWS V14.01,2012-11-23 22:24:00,
2012-11-23 15:29:00,55.5,19.3,30.34,WSW,240,0.0,1.0,24,0.00,,---,0.00,VWS V14.01,2012-11-23 22:29:00,
2012-11-23 15:34:00,55.8,19.6,30.35,WSW,240,0.0,1.0,24,0.00,,---,0.00,VWS V14.01,2012-11-23 22:34:00,
2012-11-23 15:39:00,56.3,20.0,30.34,WSW,240,1.0,1.0,24,0.00,,---,0.00,VWS V14.01,2012-11-23 22:39:00,
2012-11-23 15:44:00,56.8,20.4,30.33,WSW,240,0.0,1.0,24,0.00,,---,0.00,VWS V14.01,2012-11-23 22:44:00,
2012-11-23 15:49:00,56.6,20.2,30.32,WSW,240,0.0,2.0,24,0.00,,---,0.00,VWS V14.01,2012-11-23 22:49:00,
2012-11-23 15:54:00,56.0,19.7,30.34,WSW,240,0.0,2.0,24,0.00,,---,0.00,VWS V14.01,2012-11-23 22:54:00,
2012-11-23 15:59:00,55.7,19.5,30.35,WSW,240,0.0,1.0,24,0.00,,---,0.00,VWS V14.01,2012-11-23 22:59:00,
2012-11-23 16:04:00,55.6,19.4,30.34,WSW,240,0.0,1.0,24,0.00,,---,0.00,VWS V14.01,2012-11-23 23:04:00,
2012-11-23 16:09:00,55.5,19.3,30.33,WSW,240,0.0,0.0,24,0.00,,---,0.00,VWS V14.01,2012-11-23 23:09:00,
2012-11-23 16:14:00,55.1,19.0,30.35,WSW,240,0.0,0.0,24,0.00,,---,0.00,VWS V14.01,2012-11-23 23:14:00,
2012-11-23 16:19:00,54.4,19.3,30.34,WSW,240,0.0,0.0,25,0.00,,---,0.00,VWS V14.01,2012-11-23 23:19:00,
2012-11-23 16:24:00,53.6,19.6,30.35,WSW,240,0.0,0.0,26,0.00,,---,0.00,VWS V14.01,2012-11-23 23:24:00,
2012-11-23 16:29:00,52.7,18.8,30.36,WSW,240,0.0,0.0,26,0.00,,---,0.00,VWS V14.01,2012-11-23 23:29:00,
2012-11-23 16:34:00,51.8,18.0,30.36,WSW,240,0.0,0.0,26,0.00,,---,0.00,VWS V14.01,2012-11-23 23:34:00,
2012-11-23 16:39:00,50.6,17.9,30.38,WSW,240,1.0,2.0,27,0.00,,---,0.00,VWS V14.01,2012-11-23 23:39:00,
2012-11-23 16:44:00,48.9,18.1,30.39,WSW,240,0.0,2.0,29,0.00,,---,0.00,VWS V14.01,2012-11-23 23:44:00,
2012-11-23 16:49:00,47.2,16.6,30.39,WSW,240,0.0,1.0,29,0.00,,---,0.00,VWS V14.01,2012-11-23 23:49:00,
2012-11-23 16:54:00,45.5,15.9,30.41,WSW,240,0.0,0.0,30,0.00,,---,0.00,VWS V14.01,2012-11-23 23:54:00,
2012-11-23 16:59:00,44.2,15.5,30.43,WSW,240,0.0,0.0,31,0.00,,---,0.00,VWS V14.01,2012-11-23 23:59:00,
2012-11-23 17:04:00,43.1,15.3,30.45,WSW,240,0.0,0.0,32,0.00,,---,0.00,VWS V14.01,2012-11-24 00:04:00,
2012-11-23 17:09:00,42.1,15.1,30.47,WSW,240,0.0,0.0,33,0.00,,---,0.00,VWS V14.01,2012-11-24 00:09:00,
2012-11-23 17:14:00,41.2,14.3,30.47,WSW,240,0.0,0.0,33,0.00,,---,0.00,VWS V14.01,2012-11-24 00:14:00,
2012-11-23 17:19:00,40.4,14.3,30.47,WSW,240,0.0,0.0,34,0.00,,---,0.00,VWS V14.01,2012-11-24 00:19:00,
2012-11-23 17:24:00,39.7,13.6,30.49,WSW,240,0.0,0.0,34,0.00,,---,0.00,VWS V14.01,2012-11-24 00:24:00,
2012-11-23 17:29:00,39.2,13.9,30.49,WSW,240,0.0,1.0,35,0.00,,---,0.00,VWS V14.01,2012-11-24 00:29:00,
2012-11-23 17:34:00,38.8,13.5,30.49,WSW,240,0.0,0.0,35,0.00,,---,0.00,VWS V14.01,2012-11-24 00:34:00,
2012-11-23 17:39:00,38.2,13.6,30.51,WSW,240,0.0,0.0,36,0.00,,---,0.00,VWS V14.01,2012-11-24 00:39:00,
2012-11-23 17:44:00,37.5,13.6,30.51,WSW,240,0.0,1.0,37,0.00,,---,0.00,VWS V14.01,2012-11-24 00:44:00,
2012-11-23 17:49:00,37.2,13.9,30.51,WSW,240,1.0,2.0,38,0.00,,---,0.00,VWS V14.01,2012-11-24 00:49:00,
2012-11-23 17:54:00,37.2,13.9,30.51,WSW,240,0.0,3.0,38,0.00,,---,0.00,VWS V14.01,2012-11-24 00:54:00,
2012-11-23 17:59:00,37.0,14.4,30.51,WSW,240,0.0,1.0,39,0.00,,---,0.00,VWS V14.01,2012-11-24 00:59:00,
2012-11-23 18:04:00,36.6,14.0,30.51,WSW,240,0.0,0.0,39,0.00,,---,0.00,VWS V14.01,2012-11-24 01:04:00,
2012-11-23 18:09:00,36.1,14.1,30.53,WSW,240,0.0,2.0,40,0.00,,---,0.00,VWS V14.01,2012-11-24 01:09:00,
2012-11-23 18:14:00,35.1,13.8,30.55,WSW,240,0.0,5.0,41,0.00,,---,0.00,VWS V14.01,2012-11-24 01:14:00,
2012-11-23 18:19:00,33.3,13.2,30.55,WSW,240,3.0,6.0,43,0.00,,---,0.00,VWS V14.01,2012-11-24 01:19:00,
2012-11-23 18:24:00,31.3,12.9,30.57,WSW,240,2.0,5.0,46,0.00,,---,0.00,VWS V14.01,2012-11-24 01:24:00,
2012-11-23 18:29:00,30.4,12.6,30.59,WSW,240,0.0,6.0,47,0.00,,---,0.00,VWS V14.01,2012-11-24 01:29:00,
2012-11-23 18:34:00,29.7,12.9,30.58,WSW,240,2.0,6.0,49,0.00,,---,0.00,VWS V14.01,2012-11-24 01:34:00,
2012-11-23 18:39:00,29.5,13.2,30.59,WSW,240,3.0,5.0,50,0.00,,---,0.00,VWS V14.01,2012-11-24 01:39:00,
2012-11-23 18:44:00,29.4,13.1,30.60,WSW,240,0.0,6.0,50,0.00,,---,0.00,VWS V14.01,2012-11-24 01:44:00,
2012-11-23 18:49:00,29.3,13.0,30.61,WSW,240,0.0,5.0,50,0.00,,---,0.00,VWS V14.01,2012-11-24 01:49:00,
2012-11-23 18:54:00,29.4,13.5,30.60,WSW,240,0.0,6.0,51,0.00,,---,0.00,VWS V14.01,2012-11-24 01:54:00,
2012-11-23 18:59:00,29.5,13.6,30.60,WSW,240,3.0,4.0,51,0.00,,---,0.00,VWS V14.01,2012-11-24 01:59:00,
2012-11-23 19:04:00,29.7,13.4,30.58,WSW,240,1.0,5.0,50,0.00,,---,0.00,VWS V14.01,2012-11-24 02:04:00,
2012-11-23 19:09:00,29.6,13.3,30.52,WSW,240,0.0,7.0,50,0.00,,---,0.00,VWS V14.01,2012-11-24 02:09:00,
2012-11-23 19:14:00,29.4,13.5,30.54,WSW,240,1.0,6.0,51,0.00,,---,0.00,VWS V14.01,2012-11-24 02:14:00,
2012-11-23 19:19:00,29.3,13.4,30.54,WSW,240,0.0,5.0,51,0.00,,---,0.00,VWS V14.01,2012-11-24 02:19:00,
2012-11-23 19:24:00,29.3,13.0,30.55,WSW,240,0.0,3.0,50,0.00,,---,0.00,VWS V14.01,2012-11-24 02:24:00,
2012-11-23 19:29:00,29.4,13.1,30.54,WSW,240,0.0,1.0,50,0.00,,---,0.00,VWS V14.01,2012-11-24 02:29:00,
2012-11-23 19:34:00,29.4,13.1,30.55,WSW,240,0.0,0.0,50,0.00,,---,0.00,VWS V14.01,2012-11-24 02:34:00,
2012-11-23 19:39:00,29.4,13.1,30.54,WSW,240,0.0,0.0,50,0.00,,---,0.00,VWS V14.01,2012-11-24 02:39:00,
2012-11-23 19:45:00,29.2,12.9,30.54,WSW,240,0.0,0.0,50,0.00,,---,0.00,VWS V14.01,2012-11-24 02:45:00,
2012-11-23 19:50:00,29.1,12.8,30.54,WSW,240,0.0,0.0,50,0.00,,---,0.00,VWS V14.01,2012-11-24 02:50:00,
2012-11-23 19:55:00,29.3,13.0,30.54,WSW,240,4.0,4.0,50,0.00,,---,0.00,VWS V14.01,2012-11-24 02:55:00,
2012-11-23 20:00:00,29.7,12.9,30.53,WSW,240,0.0,1.0,49,0.00,,---,0.00,VWS V14.01,2012-11-24 03:00:00,
2012-11-23 20:05:00,29.8,12.5,30.52,WSW,240,0.0,0.0,48,0.00,,---,0.00,VWS V14.01,2012-11-24 03:05:00,
2012-11-23 20:10:00,29.9,12.6,30.45,WSW,240,0.0,0.0,48,0.00,,---,0.00,VWS V14.01,2012-11-24 03:10:00,
2012-11-23 20:15:00,30.0,12.7,30.45,WSW,240,0.0,0.0,48,0.00,,---,0.00,VWS V14.01,2012-11-24 03:15:00,
2012-11-23 20:20:00,29.9,12.1,30.44,WSW,240,0.0,0.0,47,0.00,,---,0.00,VWS V14.01,2012-11-24 03:20:00,
2012-11-23 20:25:00,29.0,11.3,30.45,WSW,240,0.0,0.0,47,0.00,,---,0.00,VWS V14.01,2012-11-24 03:25:00,
2012-11-23 20:30:00,28.7,11.5,30.45,WSW,240,0.0,0.0,48,0.00,,---,0.00,VWS V14.01,2012-11-24 03:30:00,
2012-11-23 20:35:00,28.5,11.3,30.45,WSW,240,0.0,0.0,48,0.00,,---,0.00,VWS V14.01,2012-11-24 03:35:00,
2012-11-23 20:40:00,28.0,10.9,30.46,WSW,240,0.0,0.0,48,0.00,,---,0.00,VWS V14.01,2012-11-24 03:40:00,
2012-11-23 20:45:00,27.9,11.2,30.47,WSW,240,0.0,0.0,49,0.00,,---,0.00,VWS V14.01,2012-11-24 03:45:00,
2012-11-23 20:50:00,27.4,10.8,30.48,WSW,240,0.0,0.0,49,0.00,,---,0.00,VWS V14.01,2012-11-24 03:50:00,
2012-11-23 20:55:00,26.2,10.1,30.50,WSW,240,0.0,0.0,50,0.00,,---,0.00,VWS V14.01,2012-11-24 03:55:00,
2012-11-23 21:00:00,25.7,10.5,30.50,WSW,240,0.0,0.0,52,0.00,,---,0.00,VWS V14.01,2012-11-24 04:00:00,
2012-11-23 21:05:00,25.4,10.7,30.50,WSW,240,0.0,0.0,53,0.00,,---,0.00,VWS V14.01,2012-11-24 04:05:00,
2012-11-23 21:10:00,25.1,11.2,30.43,WSW,240,0.0,0.0,55,0.00,,---,0.00,VWS V14.01,2012-11-24 04:10:00,
2012-11-23 21:15:00,25.0,11.5,30.43,WSW,240,0.0,0.0,56,0.00,,---,0.00,VWS V14.01,2012-11-24 04:15:00,
2012-11-23 21:20:00,25.0,11.9,30.43,WSW,240,1.0,1.0,57,0.00,,---,0.00,VWS V14.01,2012-11-24 04:20:00,
2012-11-23 21:25:00,24.7,12.4,30.43,WSW,240,0.0,2.0,59,0.00,,---,0.00,VWS V14.01,2012-11-24 04:25:00,
2012-11-23 21:30:00,24.2,12.3,30.43,WSW,240,0.0,3.0,60,0.00,,---,0.00,VWS V14.01,2012-11-24 04:30:00,
2012-11-23 21:35:00,24.3,12.4,30.43,WSW,240,0.0,0.0,60,0.00,,---,0.00,VWS V14.01,2012-11-24 04:35:00,
2012-11-23 21:40:00,24.5,12.2,30.43,WSW,240,2.0,2.0,59,0.00,,---,0.00,VWS V14.01,2012-11-24 04:40:00,
2012-11-23 21:45:00,24.5,11.9,30.42,WSW,240,0.0,2.0,58,0.00,,---,0.00,VWS V14.01,2012-11-24 04:45:00,
2012-11-23 21:50:00,24.4,11.0,30.42,WSW,240,2.0,3.0,56,0.00,,---,0.00,VWS V14.01,2012-11-24 04:50:00,
2012-11-23 21:55:00,24.2,10.8,30.42,WSW,240,4.0,4.0,56,0.00,,---,0.00,VWS V14.01,2012-11-24 04:55:00,
2012-11-23 22:00:00,24.5,11.1,30.41,WSW,240,2.0,3.0,56,0.00,,---,0.00,VWS V14.01,2012-11-24 05:00:00,
2012-11-23 22:01:00,24.5,11.5,30.41,WSW,240,1.0,3.0,57,0.00,,---,0.00,VWS V14.01,2012-11-24 05:01:00,
2012-11-23 22:06:00,25.2,11.7,30.38,WSW,240,2.0,5.0,56,0.00,,---,0.00,VWS V14.01,2012-11-24 05:06:00,
2012-11-23 22:11:00,26.2,11.8,30.36,WSW,240,0.0,2.0,54,0.00,,---,0.00,VWS V14.01,2012-11-24 05:11:00,
2012-11-23 22:16:00,26.5,11.3,30.36,WSW,240,0.0,2.0,52,0.00,,---,0.00,VWS V14.01,2012-11-24 05:16:00,
2012-11-23 22:19:00,26.5,11.3,30.37,WSW,240,0.0,2.0,52,0.00,,---,0.00,VWS V14.01,2012-11-24 05:19:00,
2012-11-23 22:24:00,26.5,11.7,30.37,WSW,240,0.0,5.0,53,0.00,,---,0.00,VWS V14.01,2012-11-24 05:24:00,
2012-11-23 22:29:00,26.1,11.3,30.36,WSW,240,6.0,6.0,53,0.00,,---,0.00,VWS V14.01,2012-11-24 05:29:00,
2012-11-23 22:34:00,24.9,11.0,30.38,WSW,240,0.0,7.0,55,0.00,,---,0.00,VWS V14.01,2012-11-24 05:34:00,
2012-11-23 22:39:00,24.1,11.1,30.39,WSW,240,0.0,0.0,57,0.00,,---,0.00,VWS V14.01,2012-11-24 05:39:00,
2012-11-23 22:44:00,23.6,10.6,30.39,WSW,240,0.0,4.0,57,0.00,,---,0.00,VWS V14.01,2012-11-24 05:44:00,
2012-11-23 22:49:00,23.5,10.5,30.39,WSW,240,0.0,1.0,57,0.00,,---,0.00,VWS V14.01,2012-11-24 05:49:00,
2012-11-23 22:54:00,23.7,10.7,30.39,WSW,240,0.0,0.0,57,0.00,,---,0.00,VWS V14.01,2012-11-24 05:54:00,
2012-11-23 22:59:00,23.9,10.5,30.38,WSW,240,0.0,0.0,56,0.00,,---,0.00,VWS V14.01,2012-11-24 05:59:00,
2012-11-23 23:05:00,24.1,10.7,30.38,WSW,240,1.0,1.0,56,0.00,,---,0.00,VWS V14.01,2012-11-24 06:05:00,
2012-11-23 23:10:00,24.3,10.9,30.34,WSW,240,0.0,0.0,56,0.00,,---,0.00,VWS V14.01,2012-11-24 06:10:00,
2012-11-23 23:15:00,24.7,10.9,30.34,WSW,240,0.0,0.0,55,0.00,,---,0.00,VWS V14.01,2012-11-24 06:15:00,
2012-11-23 23:20:00,24.9,10.6,30.34,WSW,240,0.0,0.0,54,0.00,,---,0.00,VWS V14.01,2012-11-24 06:20:00,
2012-11-23 23:25:00,25.2,10.9,30.34,WSW,240,0.0,0.0,54,0.00,,---,0.00,VWS V14.01,2012-11-24 06:25:00,
2012-11-23 23:30:00,25.2,10.9,30.34,WSW,240,1.0,1.0,54,0.00,,---,0.00,VWS V14.01,2012-11-24 06:30:00,
2012-11-23 23:35:00,24.9,10.6,30.34,WSW,240,0.0,0.0,54,0.00,,---,0.00,VWS V14.01,2012-11-24 06:35:00,
2012-11-23 23:40:00,24.5,10.2,30.34,WSW,240,0.0,1.0,54,0.00,,---,0.00,VWS V14.01,2012-11-24 06:40:00,
2012-11-23 23:45:00,24.1,10.3,30.33,WSW,240,0.0,0.0,55,0.00,,---,0.00,VWS V14.01,2012-11-24 06:45:00,
2012-11-23 23:50:00,23.6,10.2,30.33,WSW,240,0.0,0.0,56,0.00,,---,0.00,VWS V14.01,2012-11-24 06:50:00,
2012-11-23 23:55:00,23.3,9.9,30.35,WSW,240,0.0,0.0,56,0.00,,---,0.00,VWS V14.01,2012-11-24 06:55:00,